MSC Bremen — A8LK7 — position and weather

sailwx.info

Track history (hours):
 
Tides and Currents Weather Stations Pressure Air Temp Water Temp Dewpoint Dewpoint Depression Visibility Wind Speed Wind Dir Waves Ship Positions

MSC Bremen

Last reported at 2016-Sep-22 06:00 UTC. Time now 2016-Sep-25 20:55 UTC.
Position N 46°18' W 035°00'.

Length 294 m; ; draft 13.7 m.

Type: Ship (hazmat cat A). MMSI: 636091270.

Wind from 260 at 18 knots

Waves 2.5 meters (8 feet), 6 second period

Barometer 1012.0 mb
Air temperature 17.0 ° C
Visibility: greater than 5.4 NM
Dewpoint 15.4 ° C

Date/timePositionNaut miles runAvg speedWind from/ knotsBaromVisibWave heightAir tempDewpointWater temp
2016-Sep-22 06:00N 46°18' W 035°00'69132.9 260 / 181012.0 5.4 2.517.015.4
2016-Sep-21 09:00N 48°36' W 018°18'193 7.7 280 / 151020.010.8 3.015.011.6
2016-Sep-20 08:00N 49°12' W 013°30'4321.7 270 / 111023.010.8 2.517.015.4
2016-Sep-20 06:00N 49°18' W 012°24'28020.4 320 / 101024.0 5.4 2.517.015.4
2016-Sep-19 16:18N 49°48' W 005°15'3721.6
2016-Sep-19 14:33N 49°54' W 004°18'2121.5
2016-Sep-19 13:33N 49°54' W 003°44'2221.9
2016-Sep-19 12:33N 49°57' W 003°11'2020.4
2016-Sep-19 11:33N 50°00' W 002°40'6716.2
2016-Sep-19 07:26N 49°46' W 000°58'1719.2
2016-Sep-19 06:33N 49°39' W 000°35'30 9.9
2016-Sep-19 03:32N 49°28' E 000°08'0 0.0
2016-Sep-19 02:32N 49°28' E 000°08'0 0.0
2016-Sep-19 00:32N 49°28' E 000°08'0 0.0
2016-Sep-18 19:32N 49°28' E 000°08'16 4.0
2016-Sep-18 15:33N 49°37' W 000°11'1313.4
2016-Sep-18 14:33N 49°51' W 000°12'4210.6
2016-Sep-18 10:33N 50°31' E 000°10'1312.2
2016-Sep-18 09:30N 50°34' E 000°29'8812.7
2016-Sep-18 02:33N 51°23' E 002°27'1111.2
2016-Sep-18 01:33N 51°24' E 002°45'1312.5
2016-Sep-18 00:33N 51°24' E 003°05'2311.7
2016-Sep-17 22:33N 51°25' E 003°43'10 9.6
2016-Sep-17 21:33N 51°26' E 003°58'1010.0
2016-Sep-17 20:33N 51°22' E 004°13'5 4.0
2016-Sep-17 19:14N 51°17' E 004°15'0 0.0
2016-Sep-17 13:33N 51°17' E 004°15'0 0.0
2016-Sep-17 12:33N 51°17' E 004°15'0 0.0
2016-Sep-17 10:30N 51°17' E 004°15'0 0.0
2016-Sep-17 09:33N 51°17' E 004°15'0 0.0
2016-Sep-17 08:33N 51°17' E 004°15'0 0.0
2016-Sep-17 07:33N 51°17' E 004°15'0 0.0
2016-Sep-17 05:30N 51°17' E 004°15'0 0.0
2016-Sep-17 04:33N 51°17' E 004°15'1 0.4
2016-Sep-17 00:34N 51°18' E 004°16'9113.1
2016-Sep-16 17:34N 51°30' E 001°51'3115.5
2016-Sep-16 15:33N 51°56' E 001°22'4 1.2
2016-Sep-16 12:33N 51°58' E 001°17'0 0.0
2016-Sep-16 09:33N 51°58' E 001°17'0 0.0
2016-Sep-16 07:33N 51°58' E 001°17'0 0.0
2016-Sep-16 03:33N 51°58' E 001°17'0 0.0
2016-Sep-16 02:33N 51°58' E 001°17'0 0.0
2016-Sep-16 00:33N 51°58' E 001°17'0 0.0
2016-Sep-15 22:33N 51°58' E 001°17'0 0.0
2016-Sep-15 21:33N 51°58' E 001°17'0 0.0
2016-Sep-15 20:33N 51°58' E 001°17'0 0.0
2016-Sep-15 18:33N 51°58' E 001°17'22 3.7
2016-Sep-15 12:33N 52°04' E 001°51'2 1.8
2016-Sep-15 11:33N 52°02' E 001°51'7911.4
2016-Sep-15 04:34N 52°45' E 003°40'1212.3
2016-Sep-15 03:33N 52°55' E 003°53'2411.9
2016-Sep-15 01:34N 53°10' E 004°23'3812.6
2016-Sep-14 22:33N 53°37' E 005°09'1413.7
2016-Sep-14 21:33N 53°41' E 005°31'4912.2
2016-Sep-14 17:33N 53°54' E 006°51'1212.3
2016-Sep-14 16:33N 53°57' E 007°11'3912.9
2016-Sep-14 13:34N 53°45' E 008°13'1514.9
2016-Sep-14 12:32N 53°35' E 008°32'0 0.0
2016-Sep-14 10:29N 53°35' E 008°32'0 0.0
2016-Sep-14 09:32N 53°35' E 008°32'0 0.0
2016-Sep-14 08:32N 53°35' E 008°32'0 0.0
2016-Sep-14 07:32N 53°35' E 008°32'0 0.0
2016-Sep-14 06:31N 53°35' E 008°32'0 0.0
2016-Sep-14 03:31N 53°35' E 008°32'0 0.0
2016-Sep-13 22:32N 53°35' E 008°32'0 0.0
2016-Sep-13 20:32N 53°35' E 008°32'0 0.0
2016-Sep-13 18:32N 53°35' E 008°32'0 0.0
2016-Sep-13 17:31N 53°35' E 008°32'0 0.0
2016-Sep-13 16:31N 53°35' E 008°32'0 0.0
2016-Sep-13 11:31N 53°35' E 008°32'0 0.0
2016-Sep-13 09:31N 53°35' E 008°32'0 0.0
2016-Sep-13 07:32N 53°35' E 008°32'0 0.0
2016-Sep-13 06:31N 53°35' E 008°32'0 0.0
2016-Sep-13 04:31N 53°35' E 008°32'4 2.2
2016-Sep-13 02:33N 53°38' E 008°27'4013.4
2016-Sep-12 23:33N 53°53' E 007°25'2914.4
2016-Sep-12 21:33N 53°47' E 006°37'2914.4
2016-Sep-12 19:33N 53°39' E 005°50'2914.4
2016-Sep-12 17:33N 53°29' E 005°04'4214.2
2016-Sep-12 14:33N 52°57' E 004°19'1514.7
2016-Sep-12 13:33N 52°44' E 004°05'1515.1
2016-Sep-12 12:33N 52°34' E 003°48'1514.7
2016-Sep-12 11:33N 52°24' E 003°30'1514.9
2016-Sep-12 10:33N 52°13' E 003°13'4615.3
2016-Sep-12 07:33N 51°38' E 002°26'1515.4
2016-Sep-12 06:33N 51°26' E 002°09'  
Track history (hours):
 
Tides and Currents Weather Stations Pressure Air Temp Water Temp Dewpoint Dewpoint Depression Visibility Wind Speed Wind Dir Waves Ship Positions

MSC Bremen

Last reported at 2016-Sep-22 06:00 UTC. Time now 2016-Sep-25 20:55 UTC.
Position N 46°18' W 035°00'.

Length 294 m; ; draft 13.7 m.

Type: Ship (hazmat cat A). MMSI: 636091270.

Wind from 260 at 18 knots

Waves 2.5 meters (8 feet), 6 second period

Barometer 1012.0 mb
Air temperature 17.0 ° C
Visibility: greater than 5.4 NM
Dewpoint 15.4 ° C

Date/timePositionNaut miles runAvg speedWind from/ knotsBaromVisibWave heightAir tempDewpointWater temp
2016-Sep-22 06:00N 46°18' W 035°00'69132.9 260 / 181012.0 5.4 2.517.015.4
2016-Sep-21 09:00N 48°36' W 018°18'193 7.7 280 / 151020.010.8 3.015.011.6
2016-Sep-20 08:00N 49°12' W 013°30'4321.7 270 / 111023.010.8 2.517.015.4
2016-Sep-20 06:00N 49°18' W 012°24'28020.4 320 / 101024.0 5.4 2.517.015.4
2016-Sep-19 16:18N 49°48' W 005°15'3721.6
2016-Sep-19 14:33N 49°54' W 004°18'2121.5
2016-Sep-19 13:33N 49°54' W 003°44'2221.9
2016-Sep-19 12:33N 49°57' W 003°11'2020.4
2016-Sep-19 11:33N 50°00' W 002°40'6716.2
2016-Sep-19 07:26N 49°46' W 000°58'1719.2
2016-Sep-19 06:33N 49°39' W 000°35'30 9.9
2016-Sep-19 03:32N 49°28' E 000°08'0 0.0
2016-Sep-19 02:32N 49°28' E 000°08'0 0.0
2016-Sep-19 00:32N 49°28' E 000°08'0 0.0
2016-Sep-18 19:32N 49°28' E 000°08'16 4.0
2016-Sep-18 15:33N 49°37' W 000°11'1313.4
2016-Sep-18 14:33N 49°51' W 000°12'4210.6
2016-Sep-18 10:33N 50°31' E 000°10'1312.2
2016-Sep-18 09:30N 50°34' E 000°29'8812.7
2016-Sep-18 02:33N 51°23' E 002°27'1111.2
2016-Sep-18 01:33N 51°24' E 002°45'1312.5
2016-Sep-18 00:33N 51°24' E 003°05'2311.7
2016-Sep-17 22:33N 51°25' E 003°43'10 9.6
2016-Sep-17 21:33N 51°26' E 003°58'1010.0
2016-Sep-17 20:33N 51°22' E 004°13'5 4.0
2016-Sep-17 19:14N 51°17' E 004°15'0 0.0
2016-Sep-17 13:33N 51°17' E 004°15'0 0.0
2016-Sep-17 12:33N 51°17' E 004°15'0 0.0
2016-Sep-17 10:30N 51°17' E 004°15'0 0.0
2016-Sep-17 09:33N 51°17' E 004°15'0 0.0
2016-Sep-17 08:33N 51°17' E 004°15'0 0.0
2016-Sep-17 07:33N 51°17' E 004°15'0 0.0
2016-Sep-17 05:30N 51°17' E 004°15'0 0.0
2016-Sep-17 04:33N 51°17' E 004°15'1 0.4
2016-Sep-17 00:34N 51°18' E 004°16'9113.1
2016-Sep-16 17:34N 51°30' E 001°51'3115.5
2016-Sep-16 15:33N 51°56' E 001°22'4 1.2
2016-Sep-16 12:33N 51°58' E 001°17'0 0.0
2016-Sep-16 09:33N 51°58' E 001°17'0 0.0
2016-Sep-16 07:33N 51°58' E 001°17'0 0.0
2016-Sep-16 03:33N 51°58' E 001°17'0 0.0
2016-Sep-16 02:33N 51°58' E 001°17'0 0.0
2016-Sep-16 00:33N 51°58' E 001°17'0 0.0
2016-Sep-15 22:33N 51°58' E 001°17'0 0.0
2016-Sep-15 21:33N 51°58' E 001°17'0 0.0
2016-Sep-15 20:33N 51°58' E 001°17'0 0.0
2016-Sep-15 18:33N 51°58' E 001°17'22 3.7
2016-Sep-15 12:33N 52°04' E 001°51'2 1.8
2016-Sep-15 11:33N 52°02' E 001°51'7911.4
2016-Sep-15 04:34N 52°45' E 003°40'1212.3
2016-Sep-15 03:33N 52°55' E 003°53'2411.9
2016-Sep-15 01:34N 53°10' E 004°23'3812.6
2016-Sep-14 22:33N 53°37' E 005°09'1413.7
2016-Sep-14 21:33N 53°41' E 005°31'4912.2
2016-Sep-14 17:33N 53°54' E 006°51'1212.3
2016-Sep-14 16:33N 53°57' E 007°11'3912.9
2016-Sep-14 13:34N 53°45' E 008°13'1514.9
2016-Sep-14 12:32N 53°35' E 008°32'0 0.0
2016-Sep-14 10:29N 53°35' E 008°32'0 0.0
2016-Sep-14 09:32N 53°35' E 008°32'0 0.0
2016-Sep-14 08:32N 53°35' E 008°32'0 0.0
2016-Sep-14 07:32N 53°35' E 008°32'0 0.0
2016-Sep-14 06:31N 53°35' E 008°32'0 0.0
2016-Sep-14 03:31N 53°35' E 008°32'0 0.0
2016-Sep-13 22:32N 53°35' E 008°32'0 0.0
2016-Sep-13 20:32N 53°35' E 008°32'0 0.0
2016-Sep-13 18:32N 53°35' E 008°32'0 0.0
2016-Sep-13 17:31N 53°35' E 008°32'0 0.0
2016-Sep-13 16:31N 53°35' E 008°32'0 0.0
2016-Sep-13 11:31N 53°35' E 008°32'0 0.0
2016-Sep-13 09:31N 53°35' E 008°32'0 0.0
2016-Sep-13 07:32N 53°35' E 008°32'0 0.0
2016-Sep-13 06:31N 53°35' E 008°32'0 0.0
2016-Sep-13 04:31N 53°35' E 008°32'4 2.2
2016-Sep-13 02:33N 53°38' E 008°27'4013.4
2016-Sep-12 23:33N 53°53' E 007°25'2914.4
2016-Sep-12 21:33N 53°47' E 006°37'2914.4
2016-Sep-12 19:33N 53°39' E 005°50'2914.4
2016-Sep-12 17:33N 53°29' E 005°04'4214.2
2016-Sep-12 14:33N 52°57' E 004°19'1514.7
2016-Sep-12 13:33N 52°44' E 004°05'1515.1
2016-Sep-12 12:33N 52°34' E 003°48'1514.7
2016-Sep-12 11:33N 52°24' E 003°30'1514.9
2016-Sep-12 10:33N 52°13' E 003°13'4615.3
2016-Sep-12 07:33N 51°38' E 002°26'1515.4
2016-Sep-12 06:33N 51°26' E 002°09'  

Dump ship's entire track history